sensor_id;sensor_type;location;lat;lon;timestamp;pressure;altitude;pressure_sealevel;temperature;humidity
54648;BME280;40543;53.584;9.858;2024-02-23T17:37:54;117092.34;;;-144.59;100.00
54648;BME280;40543;53.584;9.858;2024-02-23T17:40:20;116566.72;;;-144.59;100.00
54648;BME280;40543;53.584;9.858;2024-02-23T17:42:46;116566.72;;;-144.59;100.00
54648;BME280;40543;53.584;9.858;2024-02-23T17:45:11;117092.34;;;-144.59;100.00
54648;BME280;40543;53.584;9.858;2024-02-23T17:47:37;117092.34;;;-144.59;100.00
54648;BME280;40543;53.584;9.858;2024-02-23T17:50:02;117618.03;;;-144.59;100.00
54648;BME280;40543;53.584;9.858;2024-02-23T17:52:28;117880.91;;;-144.59;100.00
54648;BME280;40543;53.584;9.858;2024-02-23T17:54:53;117880.91;;;-144.59;100.00
54648;BME280;40543;53.584;9.858;2024-02-23T17:57:18;117880.91;;;-144.59;100.00
54648;BME280;40543;53.584;9.858;2024-02-23T17:59:46;117880.91;;;-144.59;100.00
54648;BME280;40543;53.584;9.858;2024-02-23T18:02:11;117880.91;;;-144.59;100.00
54648;BME280;40543;53.584;9.858;2024-02-23T18:04:37;118143.81;;;-144.59;100.00
54648;BME280;40543;53.584;9.858;2024-02-23T18:07:04;118145.84;;;-144.59;100.00
54648;BME280;40543;53.584;9.858;2024-02-23T18:09:29;118145.84;;;-144.59;100.00
54648;BME280;40543;53.584;9.858;2024-02-23T18:11:55;118145.84;;;-144.59;100.00
54648;BME280;40543;53.584;9.858;2024-02-23T18:14:20;118145.84;;;-144.59;100.00
54648;BME280;40543;53.584;9.858;2024-02-23T18:16:46;118145.84;;;-144.59;100.00
54648;BME280;40543;53.584;9.858;2024-02-23T18:19:12;118143.81;;;-144.59;100.00
54648;BME280;40543;53.584;9.858;2024-02-23T18:21:37;117880.91;;;-144.59;100.00
54648;BME280;40543;53.584;9.858;2024-02-23T18:24:04;117092.34;;;-144.59;100.00
54648;BME280;40543;53.584;9.858;2024-02-23T18:26:31;114990.28;;;-144.59;100.00
54648;BME280;40543;53.584;9.858;2024-02-23T18:28:56;113151.84;;;-144.59;100.00
54648;BME280;40543;53.584;9.858;2024-02-23T18:31:22;112101.69;;;-144.59;100.00
54648;BME280;40543;53.584;9.858;2024-02-23T18:33:48;111314.22;;;-144.59;100.00
54648;BME280;40543;53.584;9.858;2024-02-23T18:36:13;109739.81;;;-144.59;100.00
54648;BME280;40543;53.584;9.858;2024-02-23T18:38:42;106068.50;;;-144.59;100.00
54648;BME280;40543;53.584;9.858;2024-02-23T18:41:11;101614.94;;;-144.59;100.00
54648;BME280;40543;53.584;9.858;2024-02-23T18:43:37;98735.81;;;-144.59;100.00
54648;BME280;40543;53.584;9.858;2024-02-23T18:46:05;95335.88;;;-144.59;100.00
54648;BME280;40543;53.584;9.858;2024-02-23T18:48:32;93767.63;;;-144.59;100.00
54648;BME280;40543;53.584;9.858;2024-02-23T18:50:58;89327.56;;;-144.59;100.00
54648;BME280;40543;53.584;9.858;2024-02-23T18:53:25;88022.59;;;-144.59;100.00
54648;BME280;40543;53.584;9.858;2024-02-23T18:55:50;88022.59;;;-144.59;100.00
54648;BME280;40543;53.584;9.858;2024-02-23T18:58:16;87239.81;;;-144.59;100.00
54648;BME280;40543;53.584;9.858;2024-02-23T19:00:41;86718.06;;;-144.59;100.00
54648;BME280;40543;53.584;9.858;2024-02-23T19:03:06;85413.94;;;-144.59;100.00
54648;BME280;40543;53.584;9.858;2024-02-23T19:05:32;86718.06;;;-144.59;100.00
54648;BME280;40543;53.584;9.858;2024-02-23T19:07:57;86457.19;;;-144.59;100.00
54648;BME280;40543;53.584;9.858;2024-02-23T19:10:22;88544.53;;;-144.59;100.00
54648;BME280;40543;53.584;9.858;2024-02-23T19:12:48;87761.66;;;-144.59;100.00
54648;BME280;40543;53.584;9.858;2024-02-23T19:15:13;82546.34;;;-144.59;100.00
54648;BME280;40543;53.584;9.858;2024-02-23T19:17:41;80722.56;;;-144.59;100.00
54648;BME280;40543;53.584;9.858;2024-02-23T19:20:07;79420.41;;;-144.59;100.00
54648;BME280;40543;53.584;9.858;2024-02-23T19:22:37;78118.63;;;-144.59;100.00
54648;BME280;40543;53.584;9.858;2024-02-23T19:25:06;79160.00;;;-144.59;100.00
54648;BME280;40543;53.584;9.858;2024-02-23T19:27:31;76557.09;;;-144.59;100.00
54648;BME280;40543;53.584;9.858;2024-02-23T19:29:56;74475.97;;;-144.59;100.00
54648;BME280;40543;53.584;9.858;2024-02-23T19:32:26;74215.91;;;-144.59;100.00
54648;BME280;40543;53.584;9.858;2024-02-23T19:34:52;72915.81;;;-144.59;100.00
54648;BME280;40543;53.584;9.858;2024-02-23T19:37:17;71876.06;;;-144.59;100.00
54648;BME280;40543;53.584;9.858;2024-02-23T19:39:44;73435.81;;;-144.59;100.00
54648;BME280;40543;53.584;9.858;2024-02-23T19:42:09;74215.91;;;-144.59;100.00
54648;BME280;40543;53.584;9.858;2024-02-23T19:44:34;76036.69;;;-144.59;100.00
54648;BME280;40543;53.584;9.858;2024-02-23T19:47:00;77337.78;;;-144.59;100.00
54648;BME280;40543;53.584;9.858;2024-02-23T19:49:25;78899.66;;;-144.59;100.00
54648;BME280;40543;53.584;9.858;2024-02-23T19:51:51;81764.63;;;-144.59;100.00
54648;BME280;40543;53.584;9.858;2024-02-23T19:54:18;81504.09;;;-144.59;100.00
54648;BME280;40543;53.584;9.858;2024-02-23T19:56:43;85153.16;;;-144.59;100.00
54648;BME280;40543;53.584;9.858;2024-02-23T19:59:08;88544.53;;;-144.59;100.00
54648;BME280;40543;53.584;9.858;2024-02-23T20:01:34;85674.72;;;-144.59;100.00
54648;BME280;40543;53.584;9.858;2024-02-23T20:03:59;85413.94;;;-144.59;100.00
54648;BME280;40543;53.584;9.858;2024-02-23T20:06:24;87761.66;;;-144.59;100.00
54648;BME280;40543;53.584;9.858;2024-02-23T20:08:50;86718.06;;;-144.59;100.00
54648;BME280;40543;53.584;9.858;2024-02-23T20:11:16;86978.94;;;-144.59;100.00
54648;BME280;40543;53.584;9.858;2024-02-23T20:13:41;87761.66;;;-144.59;100.00
54648;BME280;40543;53.584;9.858;2024-02-23T20:16:07;87239.81;;;-144.59;100.00
54648;BME280;40543;53.584;9.858;2024-02-23T20:18:32;89327.56;;;-144.59;100.00
54648;BME280;40543;53.584;9.858;2024-02-23T20:20:57;93245.00;;;-144.59;100.00
54648;BME280;40543;53.584;9.858;2024-02-23T20:23:23;97950.97;;;-144.59;100.00
54648;BME280;40543;53.584;9.858;2024-02-23T20:25:48;101876.78;;;-144.59;100.00
54648;BME280;40543;53.584;9.858;2024-02-23T20:28:13;103448.16;;;-144.59;100.00
54648;BME280;40543;53.584;9.858;2024-02-23T20:30:39;103448.16;;;-144.59;100.00
54648;BME280;40543;53.584;9.858;2024-02-23T20:33:04;105020.16;;;-144.59;100.00
54648;BME280;40543;53.584;9.858;2024-02-23T20:35:30;105806.38;;;-144.59;100.00
54648;BME280;40543;53.584;9.858;2024-02-23T20:37:56;105282.22;;;-144.59;100.00
54648;BME280;40543;53.584;9.858;2024-02-23T20:40:23;103448.16;;;-144.59;100.00
54648;BME280;40543;53.584;9.858;2024-02-23T20:42:50;101353.13;;;-144.59;100.00
54648;BME280;40543;53.584;9.858;2024-02-23T20:45:16;98735.81;;;-144.59;100.00
54648;BME280;40543;53.584;9.858;2024-02-23T20:47:42;97166.25;;;-144.59;100.00
54648;BME280;40543;53.584;9.858;2024-02-23T20:50:08;95858.75;;;-144.59;100.00
54648;BME280;40543;53.584;9.858;2024-02-23T20:52:33;96120.22;;;-144.59;100.00
54648;BME280;40543;53.584;9.858;2024-02-23T20:54:59;97166.25;;;-144.59;100.00
54648;BME280;40543;53.584;9.858;2024-02-23T20:57:25;98997.47;;;-144.59;100.00
54648;BME280;40543;53.584;9.858;2024-02-23T20:59:50;98997.47;;;-144.59;100.00
54648;BME280;40543;53.584;9.858;2024-02-23T21:02:16;101876.78;;;-144.59;100.00
54648;BME280;40543;53.584;9.858;2024-02-23T21:04:46;104234.09;;;-144.59;100.00
54648;BME280;40543;53.584;9.858;2024-02-23T21:07:11;105806.38;;;-144.59;100.00
54648;BME280;40543;53.584;9.858;2024-02-23T21:09:37;106854.94;;;-144.59;100.00
54648;BME280;40543;53.584;9.858;2024-02-23T21:12:03;108165.97;;;-144.59;100.00
54648;BME280;40543;53.584;9.858;2024-02-23T21:14:28;108690.53;;;-144.59;100.00
54648;BME280;40543;53.584;9.858;2024-02-23T21:16:53;109215.13;;;-144.59;100.00
54648;BME280;40543;53.584;9.858;2024-02-23T21:19:19;110002.16;;;-144.59;100.00
54648;BME280;40543;53.584;9.858;2024-02-23T21:21:44;111051.78;;;-144.59;100.00
54648;BME280;40543;53.584;9.858;2024-02-23T21:24:09;112101.69;;;-144.59;100.00
54648;BME280;40543;53.584;9.858;2024-02-23T21:26:35;112364.19;;;-144.59;100.00
54648;BME280;40543;53.584;9.858;2024-02-23T21:29:01;112626.72;;;-144.59;100.00
54648;BME280;40543;53.584;9.858;2024-02-23T21:31:26;113151.84;;;-144.59;100.00
54648;BME280;40543;53.584;9.858;2024-02-23T21:33:51;112364.19;;;-144.59;100.00
54648;BME280;40543;53.584;9.858;2024-02-23T21:36:19;111839.19;;;-144.59;100.00
54648;BME280;40543;53.584;9.858;2024-02-23T21:38:45;111576.69;;;-144.59;100.00
54648;BME280;40543;53.584;9.858;2024-02-23T21:41:11;110264.53;;;-144.59;100.00
54648;BME280;40543;53.584;9.858;2024-02-23T21:43:37;110264.53;;;-144.59;100.00
54648;BME280;40543;53.584;9.858;2024-02-23T21:46:02;109739.81;;;-144.59;100.00
54648;BME280;40543;53.584;9.858;2024-02-23T21:48:27;109739.81;;;-144.59;100.00
54648;BME280;40543;53.584;9.858;2024-02-23T21:50:53;109477.47;;;-144.59;100.00
54648;BME280;40543;53.584;9.858;2024-02-23T21:53:18;108428.25;;;-144.59;100.00
54648;BME280;40543;53.584;9.858;2024-02-23T21:55:43;107379.31;;;-144.59;100.00
54648;BME280;40543;53.584;9.858;2024-02-23T21:58:09;105282.22;;;-144.59;100.00
54648;BME280;40543;53.584;9.858;2024-02-23T22:00:34;103710.13;;;-144.59;100.00
54648;BME280;40543;53.584;9.858;2024-02-23T22:03:00;101353.13;;;-144.59;100.00
54648;BME280;40543;53.584;9.858;2024-02-23T22:05:28;98212.56;;;-144.59;100.00
54648;BME280;40543;53.584;9.858;2024-02-23T22:07:55;94028.97;;;-144.59;100.00
54648;BME280;40543;53.584;9.858;2024-02-23T22:10:20;91416.41;;;-144.59;100.00
54648;BME280;40543;53.584;9.858;2024-02-23T22:12:45;89849.69;;;-144.59;100.00
54648;BME280;40543;53.584;9.858;2024-02-23T22:15:11;87500.72;;;-144.59;100.00
54648;BME280;40543;53.584;9.858;2024-02-23T22:17:36;86457.19;;;-144.59;100.00
54648;BME280;40543;53.584;9.858;2024-02-23T22:20:04;83588.88;;;-144.59;100.00
54648;BME280;40543;53.584;9.858;2024-02-23T22:22:30;79160.00;;;-144.59;100.00
54648;BME280;40543;53.584;9.858;2024-02-23T22:24:56;73955.84;;;-144.59;100.00
54648;BME280;40543;53.584;9.858;2024-02-23T22:27:25;70140.38;;;-144.59;100.00
54648;BME280;40543;53.584;9.858;2024-02-23T22:29:50;65318.91;;;-144.59;100.00
54648;BME280;40543;53.584;9.858;2024-02-23T22:32:16;61937.00;;;-144.59;100.00
54648;BME280;40543;53.584;9.858;2024-02-23T22:34:42;62042.31;;;-144.59;100.00
54648;BME280;40543;53.584;9.858;2024-02-23T22:37:07;62242.84;;;-144.59;100.00
54648;BME280;40543;53.584;9.858;2024-02-23T22:39:32;61159.31;;;-144.59;100.00
54648;BME280;40543;53.584;9.858;2024-02-23T22:41:58;60584.22;;;-144.59;100.00
54648;BME280;40543;53.584;9.858;2024-02-23T22:44:23;60357.47;;;-144.59;100.00
54648;BME280;40543;53.584;9.858;2024-02-23T22:46:49;60175.25;;;-144.59;100.00
54648;BME280;40543;53.584;9.858;2024-02-23T22:49:14;59685.34;;;-144.59;100.00
54648;BME280;40543;53.584;9.858;2024-02-23T22:51:41;59865.50;;;-144.59;100.00
54648;BME280;40543;53.584;9.858;2024-02-23T22:54:07;59729.88;;;-144.59;100.00
54648;BME280;40543;53.584;9.858;2024-02-23T22:56:32;60572.06;;;-144.59;100.00
54648;BME280;40543;53.584;9.858;2024-02-23T22:58:58;61084.38;;;-144.59;100.00
54648;BME280;40543;53.584;9.858;2024-02-23T23:01:23;60333.16;;;-144.59;100.00
54648;BME280;40543;53.584;9.858;2024-02-23T23:03:48;60574.09;;;-144.59;100.00
54648;BME280;40543;53.584;9.858;2024-02-23T23:06:14;61218.03;;;-144.59;100.00
54648;BME280;40543;53.584;9.858;2024-02-23T23:08:39;61331.44;;;-144.59;100.00
54648;BME280;40543;53.584;9.858;2024-02-23T23:11:04;61315.22;;;-144.59;100.00
54648;BME280;40543;53.584;9.858;2024-02-23T23:13:30;62259.06;;;-144.59;100.00
54648;BME280;40543;53.584;9.858;2024-02-23T23:15:55;62562.91;;;-144.59;100.00
54648;BME280;40543;53.584;9.858;2024-02-23T23:18:21;62698.63;;;-144.59;100.00
54648;BME280;40543;53.584;9.858;2024-02-23T23:20:46;64536.47;;;-144.59;100.00
54648;BME280;40543;53.584;9.858;2024-02-23T23:23:12;65756.78;;;-144.59;100.00
54648;BME280;40543;53.584;9.858;2024-02-23T23:25:37;68801.06;;;-144.59;100.00
54648;BME280;40543;53.584;9.858;2024-02-23T23:28:02;73175.81;;;-144.59;100.00
54648;BME280;40543;53.584;9.858;2024-02-23T23:30:28;78639.28;;;-144.59;100.00
54648;BME280;40543;53.584;9.858;2024-02-23T23:32:53;82546.34;;;-144.59;100.00
54648;BME280;40543;53.584;9.858;2024-02-23T23:35:18;85674.72;;;-144.59;100.00
54648;BME280;40543;53.584;9.858;2024-02-23T23:37:44;89066.53;;;-144.59;100.00
54648;BME280;40543;53.584;9.858;2024-02-23T23:40:09;88283.56;;;-144.59;100.00
54648;BME280;40543;53.584;9.858;2024-02-23T23:42:35;90632.97;;;-144.59;100.00
54648;BME280;40543;53.584;9.858;2024-02-23T23:45:00;93767.63;;;-144.59;100.00
54648;BME280;40543;53.584;9.858;2024-02-23T23:47:26;93506.31;;;-144.59;100.00
54648;BME280;40543;53.584;9.858;2024-02-23T23:49:51;95858.75;;;-144.59;100.00
54648;BME280;40543;53.584;9.858;2024-02-23T23:52:17;98212.56;;;-144.59;100.00
54648;BME280;40543;53.584;9.858;2024-02-23T23:54:42;100044.25;;;-144.59;100.00
54648;BME280;40543;53.584;9.858;2024-02-23T23:57:07;100567.75;;;-144.59;100.00
54648;BME280;40543;53.584;9.858;2024-02-23T23:59:33;101876.78;;;-144.59;100.00
